Aérodrome :
LOGIN :

S'inscrire | Disclaimer

   EN    FR    IT 

 










Légende :    VFR   VFR Marginal   IFR   IFR Intensif   IFR Très Intensif
Visi : 
Plafond : 
>= 8 km
>= 3000ft
5 à 8 km
1000 à 3000 ft
1500m à 5 km
500 à 1000 ft
800 à 1500m
200 à 500 ft
< 800m
< 200 ft
Symboles :   Orages  Brouillard  Fortes neiges  Fortes précipitations  Vent > 20 kt
SIGMETs :   Divers  Orages  Givrage  Turbulence  Onde Orograph.  Cendres Volcan.






- Altitude de l'aérodrome : 1276 ft
- Code IATA : STR


EDDS - Stuttgart

DERNIER METAR :
  • 280620Z AUTO 30006KT 270V350 CAVOK 11/06 Q1021 NOSIG

METARs EXPIRÉS :
  • 280550Z AUTO 33004KT 280V010 CAVOK 10/05 Q1021 NOSIG
  • 280520Z AUTO 31005KT 270V350 CAVOK 10/05 Q1021 NOSIG
  • 280450Z AUTO 29006KT CAVOK 10/05 Q1021 NOSIG
  • 280420Z AUTO 29007KT CAVOK 09/05 Q1021 NOSIG
  • 280350Z AUTO 30006KT 9999 BKN049 09/06 Q1021 NOSIG
  • 280320Z AUTO 29006KT 9999 SCT040 09/06 Q1021

TAF TAF EDDS
Valide du 28 à 06h jusqu'au 29 à 06h UTC


280500Z 2806/2906 27006KT 9999 FEW045
BECMG 2806/2808 33007KT
PROB30
TEMPO 2815/2819 34015G25KT SHRA BKN025TCU
BECMG 2819/2821 VRB03KT



MET'MAP, la Météo Aéronautique d'un coup d'oeil ! - Copyright ORBIFLY Décembre 2007 - Disclaimer

ORBIFLY MET'MAP TEAM :

Programmation & Développement : Alexandra Zaïnal
Sur une idée originale de : Baudouin d'Aumeries
Soutien technique & logistique : Manuel Goepfert
Assistance : Marc-Olivier Méhu

Contact : metmap@orbifly.com




SOURCES & CREDITS :

   NOAA